createdAt,value
2018-11-06T00:00:49.494Z,60.40
2018-11-06T00:01:49.481Z,65.00
2018-11-06T00:02:49.451Z,60.90
2018-11-06T00:03:49.438Z,62.00
2018-11-06T00:04:49.409Z,63.50
2018-11-06T00:05:49.401Z,62.70
2018-11-06T00:06:49.375Z,59.20
2018-11-06T00:07:49.450Z,56.70
2018-11-06T00:08:49.326Z,57.00
2018-11-06T00:09:49.300Z,58.70
2018-11-06T00:10:49.289Z,58.20
2018-11-06T00:11:49.257Z,60.00
2018-11-06T00:12:49.235Z,63.70
2018-11-06T00:13:49.214Z,53.80
2018-11-06T00:14:49.206Z,54.90
2018-11-06T00:15:49.179Z,57.40
2018-11-06T00:16:49.149Z,56.30
2018-11-06T00:17:49.139Z,55.50
2018-11-06T00:18:49.108Z,55.40
2018-11-06T00:19:49.089Z,59.60
2018-11-06T00:20:49.074Z,57.60
2018-11-06T00:21:49.055Z,58.30
2018-11-06T00:22:49.019Z,60.50
2018-11-06T00:23:49.002Z,58.60
2018-11-06T00:24:48.978Z,55.70
2018-11-06T00:25:48.956Z,58.40
2018-11-06T00:26:48.961Z,63.10
2018-11-06T00:27:48.917Z,63.40
2018-11-06T00:28:48.899Z,56.30
2018-11-06T00:29:48.882Z,55.70
2018-11-06T00:30:48.868Z,57.10
2018-11-06T00:31:48.826Z,58.80
2018-11-06T00:32:48.807Z,59.50
2018-11-06T00:33:48.786Z,51.10
2018-11-06T00:34:48.766Z,54.30
2018-11-06T00:35:48.739Z,53.90
2018-11-06T00:36:48.724Z,51.50
2018-11-06T00:37:48.705Z,49.20
2018-11-06T00:38:48.676Z,53.10
2018-11-06T00:39:48.657Z,48.70
2018-11-06T00:40:48.633Z,45.10
2018-11-06T00:41:48.621Z,52.70
2018-11-06T00:42:48.588Z,49.90
2018-11-06T00:43:48.568Z,49.70
2018-11-06T00:44:48.554Z,50.60
2018-11-06T00:45:48.523Z,49.20
2018-11-06T00:46:48.512Z,46.20
2018-11-06T00:47:48.479Z,48.30
2018-11-06T00:48:48.539Z,45.20
2018-11-06T00:49:48.447Z,50.10
2018-11-06T00:50:48.415Z,47.90
2018-11-06T00:51:48.419Z,45.40
2018-11-06T00:52:48.374Z,46.00
2018-11-06T00:53:48.350Z,46.00
2018-11-06T00:54:48.331Z,43.10
2018-11-06T00:55:48.308Z,43.60
2018-11-06T00:56:48.288Z,47.90
2018-11-06T00:57:48.264Z,44.80
2018-11-06T00:58:48.242Z,45.10
2018-11-06T00:59:48.370Z,48.60
2018-11-06T01:00:48.199Z,42.30
2018-11-06T01:01:48.180Z,48.40
2018-11-06T01:02:48.266Z,44.10
2018-11-06T01:03:48.199Z,44.10
2018-11-06T01:04:48.120Z,45.30
2018-11-06T01:05:48.101Z,47.50
2018-11-06T01:06:48.070Z,44.70
2018-11-06T01:07:48.052Z,46.90
2018-11-06T01:08:48.025Z,45.50
2018-11-06T01:09:48.011Z,42.70
2018-11-06T01:10:47.988Z,43.80
2018-11-06T01:11:47.969Z,42.50
2018-11-06T01:12:47.938Z,41.10
2018-11-06T01:13:47.918Z,44.60
2018-11-06T01:14:47.897Z,44.60
2018-11-06T01:15:47.873Z,44.80
2018-11-06T01:16:47.852Z,49.50
2018-11-06T01:17:47.829Z,44.30
2018-11-06T01:18:47.808Z,43.70
2018-11-06T01:19:47.792Z,47.10
2018-11-06T01:20:47.766Z,42.50
2018-11-06T01:21:47.760Z,42.50
2018-11-06T01:22:47.721Z,43.60
2018-11-06T01:23:47.702Z,44.00
2018-11-06T01:24:47.740Z,42.70
2018-11-06T01:25:47.664Z,44.10
2018-11-06T01:26:47.637Z,41.60
2018-11-06T01:27:47.723Z,47.30
2018-11-06T01:28:47.600Z,43.60
2018-11-06T01:29:47.576Z,40.90
2018-11-06T01:30:47.560Z,40.70
2018-11-06T01:31:47.530Z,38.70
2018-11-06T01:32:47.508Z,38.80
2018-11-06T01:33:47.486Z,37.30
2018-11-06T01:34:47.465Z,40.80
2018-11-06T01:35:47.442Z,41.60
2018-11-06T01:36:47.429Z,40.70
2018-11-06T01:37:47.413Z,42.80
2018-11-06T01:38:47.430Z,38.90
2018-11-06T01:39:47.358Z,42.30
2018-11-06T01:40:47.335Z,40.80
2018-11-06T01:41:47.328Z,40.30
2018-11-06T01:42:47.290Z,41.60
2018-11-06T01:43:47.282Z,40.50
2018-11-06T01:44:47.252Z,39.50
2018-11-06T01:45:47.229Z,43.20
2018-11-06T01:46:47.207Z,45.20
2018-11-06T01:47:47.182Z,43.80
2018-11-06T01:48:47.163Z,39.90
2018-11-06T01:49:47.168Z,42.50
2018-11-06T01:50:47.130Z,41.50
2018-11-06T01:51:47.100Z,41.80
2018-11-06T01:52:47.077Z,37.60
2018-11-06T01:53:47.054Z,38.90
2018-11-06T01:54:47.034Z,41.80
2018-11-06T01:55:47.011Z,42.00
2018-11-06T01:56:46.990Z,40.30
2018-11-06T01:57:46.985Z,40.70
2018-11-06T01:58:46.950Z,44.40
2018-11-06T01:59:46.926Z,42.70
2018-11-06T02:00:46.936Z,41.60
2018-11-06T02:01:46.885Z,41.90
2018-11-06T02:02:46.869Z,44.60
2018-11-06T02:03:46.840Z,43.90
2018-11-06T02:04:46.819Z,45.30
2018-11-06T02:05:46.794Z,45.80
2018-11-06T02:06:46.775Z,41.80
2018-11-06T02:07:46.759Z,48.10
2018-11-06T02:08:46.741Z,44.30
2018-11-06T02:09:46.711Z,44.40
2018-11-06T02:10:46.689Z,41.10
2018-11-06T02:11:46.674Z,48.70
2018-11-06T02:12:46.644Z,45.00
2018-11-06T02:13:46.635Z,47.20
2018-11-06T02:14:46.602Z,42.80
2018-11-06T02:15:46.578Z,45.90
2018-11-06T02:16:46.558Z,40.80
2018-11-06T02:17:46.536Z,44.60
2018-11-06T02:18:46.514Z,44.80
2018-11-06T02:19:46.615Z,42.50
2018-11-06T02:20:46.474Z,43.50
2018-11-06T02:21:46.449Z,42.70
2018-11-06T02:22:46.479Z,46.70
2018-11-06T02:23:46.412Z,44.70
2018-11-06T02:24:46.383Z,44.10
2018-11-06T02:25:46.369Z,48.00
2018-11-06T02:26:46.357Z,42.30
2018-11-06T02:27:46.500Z,44.30
2018-11-06T02:28:46.299Z,43.90
2018-11-06T02:29:46.278Z,44.40
2018-11-06T02:30:46.297Z,42.80
2018-11-06T02:31:46.239Z,43.20
2018-11-06T02:32:46.223Z,40.90
2018-11-06T02:33:46.215Z,44.50
2018-11-06T02:34:46.167Z,47.20
2018-11-06T02:35:46.155Z,47.00
2018-11-06T02:36:46.122Z,45.20
2018-11-06T02:37:46.120Z,46.10
2018-11-06T02:38:46.080Z,42.60
2018-11-06T02:39:46.057Z,43.80
2018-11-06T02:40:46.078Z,47.90
2018-11-06T02:41:46.015Z,46.80
2018-11-06T02:42:45.992Z,48.00
2018-11-06T02:43:45.970Z,45.00
2018-11-06T02:44:45.949Z,48.90
2018-11-06T02:45:45.927Z,47.50
2018-11-06T02:46:45.908Z,44.90
2018-11-06T02:47:45.883Z,46.00
2018-11-06T02:48:45.859Z,42.00
2018-11-06T02:49:45.856Z,45.60
2018-11-06T02:50:45.819Z,44.20
2018-11-06T02:51:45.792Z,42.70
2018-11-06T02:52:45.874Z,40.30
2018-11-06T02:53:45.756Z,49.50
2018-11-06T02:54:45.737Z,49.10
2018-11-06T02:55:45.764Z,45.80
2018-11-06T02:56:45.686Z,44.00
2018-11-06T02:57:45.661Z,51.70
2018-11-06T02:58:45.640Z,52.20
2018-11-06T02:59:45.621Z,58.10
2018-11-06T03:00:45.595Z,61.50
2018-11-06T03:01:45.574Z,52.60
2018-11-06T03:02:45.550Z,46.50
2018-11-06T03:03:45.530Z,57.40
2018-11-06T03:04:45.507Z,46.20
2018-11-06T03:05:45.485Z,43.30
2018-11-06T03:06:45.459Z,45.40
2018-11-06T03:07:45.440Z,43.10
2018-11-06T03:08:45.418Z,43.00
2018-11-06T03:09:45.398Z,44.80
2018-11-06T03:10:45.372Z,44.60
2018-11-06T03:11:45.351Z,44.70
2018-11-06T03:12:45.334Z,43.70
2018-11-06T03:13:45.318Z,44.50
2018-11-06T03:14:45.284Z,46.90
2018-11-06T03:15:45.264Z,47.70
2018-11-06T03:16:45.308Z,45.30
2018-11-06T03:17:45.224Z,49.50
2018-11-06T03:18:45.198Z,44.50
2018-11-06T03:19:45.182Z,48.20
2018-11-06T03:20:45.155Z,45.50
2018-11-06T03:21:45.134Z,47.30
2018-11-06T03:22:45.144Z,44.30
2018-11-06T03:23:45.083Z,48.00
2018-11-06T03:24:45.068Z,51.30
2018-11-06T03:25:45.195Z,46.40
2018-11-06T03:26:45.037Z,50.70
2018-11-06T03:27:44.996Z,49.10
2018-11-06T03:28:44.984Z,51.00
2018-11-06T03:29:44.952Z,52.10
2018-11-06T03:30:44.932Z,49.50
2018-11-06T03:31:44.909Z,51.20
2018-11-06T03:32:44.890Z,52.00
2018-11-06T03:33:44.862Z,51.20
2018-11-06T03:34:44.839Z,53.30
2018-11-06T03:35:44.821Z,51.70
2018-11-06T03:36:44.796Z,49.60
2018-11-06T03:37:44.781Z,45.30
2018-11-06T03:38:44.753Z,48.80
2018-11-06T03:39:44.728Z,49.80
2018-11-06T03:40:44.704Z,51.80
2018-11-06T03:41:44.684Z,54.50
2018-11-06T03:42:44.661Z,52.40
2018-11-06T03:43:44.638Z,55.20
2018-11-06T03:44:44.680Z,43.80
2018-11-06T03:45:44.597Z,44.50
2018-11-06T03:46:44.572Z,44.50
2018-11-06T03:47:44.718Z,43.20
2018-11-06T03:48:44.533Z,42.30
2018-11-06T03:49:44.504Z,46.60
2018-11-06T03:50:44.581Z,43.20
2018-11-06T03:51:44.462Z,45.60
2018-11-06T03:52:44.438Z,52.60
2018-11-06T03:53:44.418Z,57.00
2018-11-06T03:54:44.393Z,53.90
2018-11-06T03:55:44.371Z,47.60
2018-11-06T03:56:44.356Z,53.20
2018-11-06T03:57:44.324Z,56.00
2018-11-06T03:58:44.304Z,53.80
2018-11-06T03:59:44.295Z,53.80
2018-11-06T04:00:44.260Z,56.40
2018-11-06T04:01:44.232Z,50.70
2018-11-06T04:02:44.210Z,47.80
2018-11-06T04:03:44.200Z,51.30
2018-11-06T04:04:44.171Z,45.20
2018-11-06T04:05:44.143Z,43.80
2018-11-06T04:06:44.124Z,43.80
2018-11-06T04:07:44.098Z,44.00
2018-11-06T04:08:44.078Z,52.60
2018-11-06T04:09:44.057Z,53.00
2018-11-06T04:10:44.031Z,54.50
2018-11-06T04:11:44.010Z,46.40
2018-11-06T04:12:43.989Z,47.60
2018-11-06T04:13:43.971Z,47.70
2018-11-06T04:14:43.942Z,43.40
2018-11-06T04:15:43.919Z,44.90
2018-11-06T04:16:43.899Z,48.80
2018-11-06T04:17:43.872Z,47.60
2018-11-06T04:18:43.851Z,45.70
2018-11-06T04:19:43.831Z,51.30
2018-11-06T04:20:43.814Z,52.20
2018-11-06T04:21:43.783Z,47.90
2018-11-06T04:22:43.764Z,50.70
2018-11-06T04:23:43.748Z,48.50
2018-11-06T04:24:43.715Z,48.80
2018-11-06T04:25:43.693Z,49.60
2018-11-06T04:26:43.669Z,50.80
2018-11-06T04:27:43.666Z,52.10
2018-11-06T04:28:43.625Z,55.10
2018-11-06T04:29:43.608Z,60.50
2018-11-06T04:30:43.579Z,52.60
2018-11-06T04:31:43.563Z,51.00
2018-11-06T04:32:43.548Z,48.30
2018-11-06T04:33:43.511Z,56.30
2018-11-06T04:34:43.489Z,54.80
2018-11-06T04:35:43.470Z,50.30
2018-11-06T04:36:43.448Z,54.60
2018-11-06T04:37:43.425Z,51.30
2018-11-06T04:38:43.399Z,46.50
2018-11-06T04:39:43.379Z,48.40
2018-11-06T04:40:43.368Z,47.80
2018-11-06T04:41:43.338Z,49.30
2018-11-06T04:42:43.310Z,46.80
2018-11-06T04:43:43.283Z,51.00
2018-11-06T04:44:43.265Z,48.20
2018-11-06T04:45:43.409Z,44.80
2018-11-06T04:46:43.219Z,47.60
2018-11-06T04:47:43.192Z,41.10
2018-11-06T04:48:43.171Z,49.00
2018-11-06T04:49:43.152Z,52.90
2018-11-06T04:50:43.136Z,48.30
2018-11-06T04:51:43.103Z,44.90
2018-11-06T04:52:43.085Z,46.50
2018-11-06T04:53:43.066Z,48.50
2018-11-06T04:54:43.041Z,47.90
2018-11-06T04:55:43.013Z,46.40
2018-11-06T04:56:43.079Z,45.40
2018-11-06T04:57:42.977Z,47.60
2018-11-06T04:58:42.944Z,47.80
2018-11-06T04:59:42.978Z,51.70
2018-11-06T05:00:42.903Z,44.70
2018-11-06T05:01:42.879Z,42.80
2018-11-06T05:02:42.856Z,49.00
2018-11-06T05:03:42.832Z,43.70
2018-11-06T05:04:42.809Z,45.10
2018-11-06T05:05:42.787Z,49.10
2018-11-06T05:06:42.779Z,40.40
2018-11-06T05:07:42.754Z,50.50
2018-11-06T05:08:42.719Z,49.90
2018-11-06T05:09:42.697Z,41.80
2018-11-06T05:10:42.675Z,43.30
2018-11-06T05:11:42.668Z,49.60
2018-11-06T05:12:42.633Z,49.50
2018-11-06T05:13:42.607Z,49.90
2018-11-06T05:14:42.585Z,45.20
2018-11-06T05:15:42.568Z,48.50
2018-11-06T05:16:42.537Z,47.50
2018-11-06T05:17:42.514Z,50.10
2018-11-06T05:18:42.606Z,41.20
2018-11-06T05:19:42.470Z,43.80
2018-11-06T05:20:42.447Z,43.80
2018-11-06T05:21:42.527Z,40.80
2018-11-06T05:22:42.400Z,42.00
2018-11-06T05:23:42.376Z,39.90
2018-11-06T05:24:42.405Z,40.70
2018-11-06T05:25:42.332Z,43.30
2018-11-06T05:26:42.316Z,43.70
2018-11-06T05:27:42.286Z,48.10
2018-11-06T05:28:42.268Z,41.80
2018-11-06T05:29:42.249Z,39.90
2018-11-06T05:30:42.217Z,43.70
2018-11-06T05:31:42.203Z,41.40
2018-11-06T05:32:42.218Z,41.30
2018-11-06T05:33:42.148Z,49.00
2018-11-06T05:34:42.132Z,45.20
2018-11-06T05:35:42.113Z,43.30
2018-11-06T05:36:42.081Z,41.80
2018-11-06T05:37:42.057Z,39.70
2018-11-06T05:38:42.043Z,47.60
2018-11-06T05:39:42.140Z,40.30
2018-11-06T05:40:41.994Z,38.90
2018-11-06T05:41:41.982Z,39.00
2018-11-06T05:42:41.944Z,39.30
2018-11-06T05:43:41.923Z,38.80
2018-11-06T05:44:41.900Z,40.70
2018-11-06T05:45:41.917Z,41.50
2018-11-06T05:46:41.853Z,36.40
2018-11-06T05:47:41.832Z,37.50
2018-11-06T05:48:41.808Z,38.20
2018-11-06T05:49:41.784Z,38.20
2018-11-06T05:50:41.773Z,37.30
2018-11-06T05:51:41.859Z,36.40
2018-11-06T05:52:41.727Z,35.30
2018-11-06T05:53:41.693Z,39.90
2018-11-06T05:54:41.714Z,40.60
2018-11-06T05:55:41.660Z,38.30
2018-11-06T05:56:41.630Z,35.50
2018-11-06T05:57:41.624Z,38.40
2018-11-06T05:58:41.580Z,36.70
2018-11-06T05:59:41.558Z,38.50
2018-11-06T06:00:41.557Z,35.80
2018-11-06T06:01:41.514Z,42.10
2018-11-06T06:02:41.495Z,37.60
2018-11-06T06:03:41.466Z,37.50
2018-11-06T06:04:41.442Z,39.60
2018-11-06T06:05:41.423Z,36.60
2018-11-06T06:06:41.405Z,39.00
2018-11-06T06:07:41.376Z,38.80
2018-11-06T06:08:41.352Z,42.50
2018-11-06T06:09:41.337Z,38.30
2018-11-06T06:10:41.311Z,36.30
2018-11-06T06:11:41.282Z,42.00
2018-11-06T06:12:41.262Z,41.00
2018-11-06T06:13:41.242Z,41.00
2018-11-06T06:14:41.215Z,38.90
2018-11-06T06:15:41.192Z,40.70
2018-11-06T06:16:41.352Z,39.80
2018-11-06T06:17:41.147Z,38.00
2018-11-06T06:18:41.122Z,36.40
2018-11-06T06:19:41.100Z,42.20
2018-11-06T06:20:41.079Z,35.10
2018-11-06T06:21:41.056Z,36.50
2018-11-06T06:22:41.121Z,38.00
2018-11-06T06:23:41.017Z,40.10
2018-11-06T06:24:40.989Z,39.30
2018-11-06T06:25:40.964Z,36.60
2018-11-06T06:26:40.941Z,39.10
2018-11-06T06:27:40.945Z,38.10
2018-11-06T06:28:40.896Z,38.40
2018-11-06T06:29:40.873Z,41.40
2018-11-06T06:30:40.870Z,35.80
2018-11-06T06:31:40.825Z,39.40
2018-11-06T06:32:40.811Z,35.00
2018-11-06T06:33:40.784Z,36.90
2018-11-06T06:34:40.857Z,35.50
2018-11-06T06:35:40.733Z,40.00
2018-11-06T06:36:40.715Z,32.80
2018-11-06T06:37:40.695Z,38.80
2018-11-06T06:38:40.830Z,36.60
2018-11-06T06:39:40.645Z,40.70
2018-11-06T06:40:40.646Z,37.60
2018-11-06T06:41:40.598Z,35.10
2018-11-06T06:42:40.574Z,36.10
2018-11-06T06:43:40.558Z,35.60
2018-11-06T06:44:40.530Z,36.10
2018-11-06T06:45:40.512Z,39.00
2018-11-06T06:46:40.484Z,55.30
2018-11-06T06:47:40.463Z,57.10
2018-11-06T06:48:40.439Z,51.30
2018-11-06T06:49:40.528Z,45.90
2018-11-06T06:50:40.399Z,59.90
2018-11-06T06:51:40.370Z,57.50
2018-11-06T06:52:40.354Z,53.70
2018-11-06T06:53:40.331Z,55.50
2018-11-06T06:54:40.467Z,44.50
2018-11-06T06:55:40.303Z,42.90
2018-11-06T06:56:40.254Z,41.80
2018-11-06T06:57:40.241Z,40.00
2018-11-06T06:58:40.214Z,42.70
2018-11-06T06:59:40.190Z,42.90
2018-11-06T07:00:40.173Z,40.80
2018-11-06T07:01:40.155Z,39.30
2018-11-06T07:02:40.165Z,43.40
2018-11-06T07:03:40.098Z,44.10
2018-11-06T07:04:40.073Z,43.80
2018-11-06T07:05:40.047Z,40.70
2018-11-06T07:06:40.028Z,35.50
2018-11-06T07:07:40.013Z,40.70
2018-11-06T07:08:39.989Z,38.50
2018-11-06T07:09:39.959Z,38.20
2018-11-06T07:10:39.941Z,42.50
2018-11-06T07:11:39.912Z,33.80
2018-11-06T07:12:39.957Z,35.30
2018-11-06T07:13:39.866Z,36.00
2018-11-06T07:14:39.848Z,35.60
2018-11-06T07:15:39.822Z,34.40
2018-11-06T07:16:39.817Z,38.10
2018-11-06T07:17:39.777Z,35.00
2018-11-06T07:18:39.796Z,38.60
2018-11-06T07:19:39.732Z,32.80
2018-11-06T07:20:39.712Z,35.30
2018-11-06T07:21:39.691Z,31.50
2018-11-06T07:22:39.682Z,30.70
2018-11-06T07:23:39.641Z,30.90
2018-11-06T07:24:39.619Z,31.20
2018-11-06T07:25:39.742Z,30.50
2018-11-06T07:26:39.573Z,27.90
2018-11-06T07:27:39.554Z,35.20
2018-11-06T07:28:39.553Z,33.70
2018-11-06T07:29:39.517Z,30.60
2018-11-06T07:30:39.485Z,30.60
2018-11-06T07:31:39.461Z,31.30
2018-11-06T07:32:39.447Z,31.00
2018-11-06T07:33:39.419Z,29.30
2018-11-06T07:34:39.549Z,29.00
2018-11-06T07:35:39.573Z,29.90
2018-11-06T07:36:39.351Z,28.80
2018-11-06T07:37:39.338Z,31.10
2018-11-06T07:38:39.306Z,30.00
2018-11-06T07:39:39.285Z,35.20
2018-11-06T07:40:39.333Z,28.30
2018-11-06T07:41:39.252Z,33.20
2018-11-06T07:42:39.214Z,30.80
2018-11-06T07:43:39.205Z,30.20
2018-11-06T07:44:39.175Z,29.50
2018-11-06T07:45:39.149Z,31.60
2018-11-06T07:46:39.127Z,30.00
2018-11-06T07:47:39.149Z,27.50
2018-11-06T07:48:39.085Z,30.00
2018-11-06T07:49:39.086Z,27.20
2018-11-06T07:50:39.050Z,32.00
2018-11-06T07:51:39.018Z,34.00
2018-11-06T07:52:38.995Z,32.00
2018-11-06T07:53:38.973Z,32.40
2018-11-06T07:54:38.954Z,26.70
2018-11-06T07:55:39.031Z,26.90
2018-11-06T07:56:38.911Z,29.80
2018-11-06T07:57:38.895Z,32.70
2018-11-06T07:58:38.865Z,30.10
2018-11-06T07:59:38.850Z,29.50
2018-11-06T08:00:38.819Z,27.80
2018-11-06T08:01:38.850Z,29.70
2018-11-06T08:02:38.781Z,27.00
2018-11-06T08:03:38.756Z,27.60
2018-11-06T08:04:38.734Z,32.80
2018-11-06T08:05:38.710Z,25.90
2018-11-06T08:06:38.691Z,30.10
2018-11-06T08:07:38.673Z,30.90
2018-11-06T08:08:38.646Z,26.50
2018-11-06T08:09:38.693Z,34.10
2018-11-06T08:10:38.603Z,31.10
2018-11-06T08:11:38.580Z,31.00
2018-11-06T08:12:38.562Z,31.60
2018-11-06T08:13:38.542Z,28.70
2018-11-06T08:14:38.609Z,27.30
2018-11-06T08:15:38.499Z,30.50
2018-11-06T08:16:38.473Z,29.30
2018-11-06T08:17:38.451Z,36.00
2018-11-06T08:18:38.432Z,27.70
2018-11-06T08:19:38.414Z,30.20
2018-11-06T08:20:38.587Z,29.20
2018-11-06T08:21:38.365Z,32.40
2018-11-06T08:22:38.344Z,31.90
2018-11-06T08:23:38.404Z,30.10
2018-11-06T08:24:38.302Z,31.40
2018-11-06T08:25:38.278Z,34.20
2018-11-06T08:26:38.264Z,29.80
2018-11-06T08:27:38.247Z,29.60
2018-11-06T08:28:38.215Z,28.20
2018-11-06T08:29:38.196Z,27.90
2018-11-06T08:30:38.272Z,33.10
2018-11-06T08:31:38.460Z,29.40
2018-11-06T08:32:38.837Z,29.50
2018-11-06T08:33:38.108Z,28.20
2018-11-06T08:34:38.105Z,27.60
2018-11-06T08:35:38.066Z,26.40
2018-11-06T08:36:38.136Z,27.60
2018-11-06T08:37:38.022Z,30.00
2018-11-06T08:38:38.012Z,27.60
2018-11-06T08:39:38.135Z,30.70
2018-11-06T08:40:37.974Z,31.80
2018-11-06T08:41:37.947Z,28.50
2018-11-06T08:42:38.173Z,28.30
2018-11-06T08:43:37.900Z,27.00
2018-11-06T08:44:37.901Z,30.30
2018-11-06T08:45:37.909Z,28.20
2018-11-06T08:46:37.839Z,27.40
2018-11-06T08:47:37.816Z,26.60
2018-11-06T08:48:37.800Z,28.80
2018-11-06T08:49:37.787Z,28.70
2018-11-06T08:50:37.758Z,30.00
2018-11-06T08:51:37.733Z,28.10
2018-11-06T08:52:37.732Z,30.60
2018-11-06T08:53:37.690Z,30.00
2018-11-06T08:54:37.760Z,29.60
2018-11-06T08:55:37.660Z,31.90
2018-11-06T08:56:37.630Z,26.90
2018-11-06T08:57:37.612Z,25.00
2018-11-06T08:58:37.592Z,26.50
2018-11-06T08:59:37.569Z,29.20
2018-11-06T09:00:37.547Z,26.70
2018-11-06T09:01:37.528Z,25.70
2018-11-06T09:02:37.639Z,24.30
2018-11-06T09:03:37.489Z,30.90
2018-11-06T09:04:37.464Z,25.20
2018-11-06T09:05:37.447Z,26.50
2018-11-06T09:06:37.431Z,27.60
2018-11-06T09:07:37.409Z,26.60
2018-11-06T09:08:37.398Z,26.80
2018-11-06T09:09:37.366Z,23.60
2018-11-06T09:10:37.349Z,25.10
2018-11-06T09:11:37.327Z,30.10
2018-11-06T09:12:37.312Z,30.50
2018-11-06T09:13:37.286Z,30.00
2018-11-06T09:14:37.277Z,25.60
2018-11-06T09:15:37.277Z,29.90
2018-11-06T09:16:37.232Z,25.10
2018-11-06T09:17:37.216Z,26.70
2018-11-06T09:18:37.193Z,24.50
2018-11-06T09:19:37.169Z,28.40
2018-11-06T09:20:37.158Z,27.00
2018-11-06T09:21:37.127Z,24.30
2018-11-06T09:22:37.111Z,23.80
2018-11-06T09:23:37.098Z,25.90
2018-11-06T09:24:37.073Z,24.20
2018-11-06T09:25:37.052Z,23.20
2018-11-06T09:26:37.034Z,21.50
2018-11-06T09:27:37.018Z,24.20
2018-11-06T09:28:37.000Z,22.80
2018-11-06T09:29:36.985Z,23.10
2018-11-06T09:30:38.400Z,21.10
2018-11-06T09:31:37.019Z,24.70
2018-11-06T09:32:36.931Z,23.80
2018-11-06T09:33:36.936Z,25.60
2018-11-06T09:34:36.999Z,20.80
2018-11-06T09:35:36.880Z,21.20
2018-11-06T09:36:36.868Z,19.60
2018-11-06T09:37:36.842Z,20.30
2018-11-06T09:38:36.837Z,21.90
2018-11-06T09:39:36.904Z,18.20
2018-11-06T09:40:36.819Z,19.60
2018-11-06T09:41:36.781Z,21.00
2018-11-06T09:42:36.832Z,17.90
2018-11-06T09:43:36.761Z,21.80
2018-11-06T09:44:36.724Z,25.10
2018-11-06T09:45:36.815Z,25.80
2018-11-06T09:46:36.692Z,23.90
2018-11-06T09:47:36.681Z,23.90
2018-11-06T09:48:36.657Z,20.70
2018-11-06T09:49:36.645Z,25.70
2018-11-06T09:50:36.625Z,21.30
2018-11-06T09:51:36.611Z,17.10
2018-11-06T09:52:36.594Z,24.20
2018-11-06T09:53:36.575Z,20.10
2018-11-06T09:54:36.558Z,25.10
2018-11-06T09:55:36.540Z,23.40
2018-11-06T09:56:36.526Z,27.20
2018-11-06T09:57:36.509Z,22.50
2018-11-06T09:58:36.493Z,20.30
2018-11-06T09:59:36.491Z,17.70
2018-11-06T10:00:36.459Z,19.60
2018-11-06T10:01:36.449Z,22.00
2018-11-06T10:02:36.423Z,28.20
2018-11-06T10:03:36.415Z,22.30
2018-11-06T10:04:36.395Z,21.50
2018-11-06T10:05:36.399Z,21.90
2018-11-06T10:06:36.498Z,21.70
2018-11-06T10:07:36.360Z,30.90
2018-11-06T10:08:36.329Z,23.60
2018-11-06T10:09:36.311Z,19.90
2018-11-06T10:10:36.336Z,26.30
2018-11-06T10:11:36.280Z,26.70
2018-11-06T10:12:36.272Z,26.40
2018-11-06T10:13:36.252Z,25.40
2018-11-06T10:14:36.230Z,24.50
2018-11-06T10:15:36.240Z,23.90
2018-11-06T10:16:36.206Z,21.00
2018-11-06T10:17:36.184Z,22.40
2018-11-06T10:18:36.217Z,20.70
2018-11-06T10:19:36.160Z,28.20
2018-11-06T10:20:36.137Z,21.70
2018-11-06T10:21:36.119Z,25.80
2018-11-06T10:22:36.107Z,23.70
2018-11-06T10:23:36.089Z,21.70
2018-11-06T10:24:36.073Z,23.10
2018-11-06T10:25:36.066Z,24.30
2018-11-06T10:26:36.851Z,24.30
2018-11-06T10:27:36.026Z,22.10
2018-11-06T10:28:36.019Z,21.20
2018-11-06T10:29:35.994Z,19.20
2018-11-06T10:30:36.011Z,18.20
2018-11-06T10:31:35.963Z,21.60
2018-11-06T10:32:35.954Z,22.30
2018-11-06T10:33:35.933Z,21.00
2018-11-06T10:34:36.005Z,24.20
2018-11-06T10:35:35.910Z,22.90
2018-11-06T10:36:35.890Z,23.40
2018-11-06T10:37:35.867Z,19.10
2018-11-06T10:38:35.853Z,25.10
2018-11-06T10:39:35.835Z,23.00
2018-11-06T10:40:35.826Z,26.80
2018-11-06T10:41:35.808Z,22.40
2018-11-06T10:42:35.787Z,22.70
2018-11-06T10:43:35.787Z,22.00
2018-11-06T10:44:35.754Z,21.70
2018-11-06T10:45:35.753Z,21.90
2018-11-06T10:46:35.721Z,22.50
2018-11-06T10:47:35.711Z,22.60
2018-11-06T10:48:35.695Z,22.90
2018-11-06T10:49:35.682Z,24.20
2018-11-06T10:50:35.672Z,26.70
2018-11-06T10:51:35.681Z,20.70
2018-11-06T10:52:35.625Z,24.90
2018-11-06T10:53:35.623Z,25.80
2018-11-06T10:54:35.594Z,21.80
2018-11-06T10:55:35.577Z,26.60
2018-11-06T10:56:35.561Z,25.30
2018-11-06T10:57:35.546Z,25.00
2018-11-06T10:58:35.526Z,27.10
2018-11-06T10:59:35.562Z,21.20
2018-11-06T11:00:35.496Z,27.30
2018-11-06T11:01:35.475Z,23.50
2018-11-06T11:02:35.469Z,23.90
2018-11-06T11:03:35.466Z,27.30
2018-11-06T11:04:35.487Z,25.70
2018-11-06T11:05:35.415Z,27.00
2018-11-06T11:06:35.399Z,25.10
2018-11-06T11:07:35.381Z,24.90
2018-11-06T11:08:35.360Z,23.10
2018-11-06T11:09:35.371Z,22.40
2018-11-06T11:10:35.332Z,22.80
2018-11-06T11:11:35.317Z,21.60
2018-11-06T11:12:35.519Z,20.10
2018-11-06T11:13:35.287Z,23.70
2018-11-06T11:14:35.265Z,25.30
2018-11-06T11:15:35.258Z,22.10
2018-11-06T11:16:35.233Z,21.80
2018-11-06T11:17:35.214Z,21.30
2018-11-06T11:18:35.201Z,22.00
2018-11-06T11:19:35.197Z,23.70
2018-11-06T11:20:35.164Z,21.40
2018-11-06T11:21:35.152Z,20.80
2018-11-06T11:22:35.137Z,23.10
2018-11-06T11:23:35.126Z,20.40
2018-11-06T11:24:35.111Z,26.00
2018-11-06T11:25:35.157Z,20.70
2018-11-06T11:26:35.093Z,23.90
2018-11-06T11:27:35.052Z,22.80
2018-11-06T11:28:35.036Z,21.90
2018-11-06T11:29:35.018Z,24.50
2018-11-06T11:30:35.003Z,23.50
2018-11-06T11:31:34.989Z,24.60
2018-11-06T11:32:34.972Z,22.20
2018-11-06T11:33:34.961Z,21.80
2018-11-06T11:34:34.938Z,22.80
2018-11-06T11:35:34.928Z,29.10
2018-11-06T11:36:34.913Z,24.70
2018-11-06T11:37:34.927Z,21.00
2018-11-06T11:38:34.871Z,21.70
2018-11-06T11:39:34.871Z,24.40
2018-11-06T11:40:34.848Z,19.90
2018-11-06T11:41:34.820Z,22.60
2018-11-06T11:42:34.810Z,23.60
2018-11-06T11:43:34.790Z,20.30
2018-11-06T11:44:34.772Z,23.40
2018-11-06T11:45:34.766Z,24.30
2018-11-06T11:46:34.737Z,24.20
2018-11-06T11:47:34.723Z,26.20
2018-11-06T11:48:34.709Z,28.90
2018-11-06T11:49:34.697Z,22.90
2018-11-06T11:50:34.675Z,26.10
2018-11-06T11:51:34.656Z,21.70
2018-11-06T11:52:34.655Z,20.20
2018-11-06T11:53:34.675Z,21.80
2018-11-06T11:54:34.608Z,21.60
2018-11-06T11:55:34.597Z,21.90
2018-11-06T11:56:34.577Z,19.80
2018-11-06T11:57:34.556Z,28.60
2018-11-06T11:58:34.544Z,20.90
2018-11-06T11:59:34.526Z,22.00
2018-11-06T12:00:34.512Z,24.90
2018-11-06T12:01:34.500Z,27.20
2018-11-06T12:02:34.478Z,25.20
2018-11-06T12:03:34.459Z,23.50
2018-11-06T12:04:34.446Z,20.00
2018-11-06T12:05:34.427Z,27.70
2018-11-06T12:06:34.411Z,22.50
2018-11-06T12:07:34.393Z,22.70
2018-11-06T12:08:34.376Z,23.50
2018-11-06T12:09:34.448Z,25.00
2018-11-06T12:10:34.355Z,21.90
2018-11-06T12:11:34.329Z,22.30
2018-11-06T12:12:34.373Z,28.30
2018-11-06T12:13:34.296Z,20.70
2018-11-06T12:14:34.277Z,23.70
2018-11-06T12:15:34.276Z,29.20
2018-11-06T12:16:34.247Z,26.30
2018-11-06T12:17:34.226Z,21.40
2018-11-06T12:18:34.223Z,21.50
2018-11-06T12:19:34.198Z,24.50
2018-11-06T12:20:34.181Z,23.20
2018-11-06T12:21:34.164Z,23.50
2018-11-06T12:22:34.156Z,24.80
2018-11-06T12:23:34.154Z,24.70
2018-11-06T12:24:34.153Z,23.90
2018-11-06T12:25:34.335Z,23.00
2018-11-06T12:26:34.080Z,22.70
2018-11-06T12:27:34.065Z,22.30
2018-11-06T12:28:34.162Z,20.10
2018-11-06T12:29:34.043Z,22.20
2018-11-06T12:30:34.035Z,21.90
2018-11-06T12:31:34.049Z,24.50
2018-11-06T12:32:34.039Z,25.50
2018-11-06T12:33:33.966Z,20.00
2018-11-06T12:34:33.951Z,23.10
2018-11-06T12:35:33.935Z,23.40
2018-11-06T12:36:34.098Z,21.10
2018-11-06T12:37:33.904Z,21.90
2018-11-06T12:38:33.883Z,23.40
2018-11-06T12:39:33.961Z,23.70
2018-11-06T12:40:33.852Z,21.40
2018-11-06T12:41:33.834Z,26.00
2018-11-06T12:42:33.831Z,22.70
2018-11-06T12:43:33.861Z,26.60
2018-11-06T12:44:33.787Z,23.00
2018-11-06T12:45:33.784Z,27.80
2018-11-06T12:46:33.757Z,25.00
2018-11-06T12:47:33.736Z,24.80
2018-11-06T12:48:33.735Z,22.80
2018-11-06T12:49:33.702Z,24.40
2018-11-06T12:50:33.687Z,25.40
2018-11-06T12:51:33.681Z,25.90
2018-11-06T12:52:33.657Z,23.80